Time;durP1;ratioP1;P1;durP2;ratioP2;P2;SDS_P1;SDS_P2;PMS_P1;PMS_P2;Temp;Humidity;BMP_temperature;BMP_pressure;BME280_temperature;BME280_humidity;BME280_pressure;Samples;Min_cycle;Max_cycle;Signal;HPM_P1;HPM_P2
2023/11/10 00:00:11;;;;;;;7.27;3.53;;;8.70;99.90;;;;;;4910183;29;20507;-63
2023/11/10 00:02:42;;;;;;;3.43;2.00;;;8.70;99.90;;;;;;4902866;29;21070;-64
2023/11/10 00:05:11;;;;;;;4.53;2.50;;;8.70;99.90;;;;;;4908367;28;20503;-62
2023/11/10 00:07:39;;;;;;;4.00;2.73;;;8.70;99.90;;;;;;4910145;29;20480;-64
2023/11/10 00:10:10;;;;;;;4.17;2.57;;;8.70;99.90;;;;;;4909275;29;20480;-64
2023/11/10 00:12:38;;;;;;;8.07;2.67;;;8.70;99.90;;;;;;4911972;29;20484;-64
2023/11/10 00:15:09;;;;;;;4.73;2.70;;;8.80;99.90;;;;;;4909757;28;20666;-63
2023/11/10 00:17:39;;;;;;;5.67;2.57;;;8.70;99.90;;;;;;4911068;29;20488;-64
2023/11/10 00:20:09;;;;;;;4.07;2.40;;;8.70;99.90;;;;;;4907318;29;20479;-64
2023/11/10 00:22:39;;;;;;;4.47;2.33;;;8.70;99.90;;;;;;4915587;29;20641;-64
2023/11/10 00:25:11;;;;;;;5.80;2.33;;;8.60;99.90;;;;;;4911958;28;21430;-64
2023/11/10 00:27:39;;;;;;;2.90;2.60;;;8.60;99.90;;;;;;4910372;29;21044;-64
2023/11/10 00:30:08;;;;;;;3.43;2.33;;;8.60;99.90;;;;;;4909588;29;20491;-62
2023/11/10 00:32:37;;;;;;;2.73;2.53;;;8.60;99.90;;;;;;4915770;29;20492;-63
2023/11/10 00:35:06;;;;;;;2.60;2.07;;;8.60;99.90;;;;;;4917049;28;20827;-64
2023/11/10 00:37:34;;;;;;;3.70;2.60;;;8.60;99.90;;;;;;4916865;29;20475;-64
2023/11/10 00:40:02;;;;;;;3.50;2.10;;;8.60;99.90;;;;;;4910196;29;20555;-65
2023/11/10 00:42:31;;;;;;;3.27;2.40;;;8.50;99.90;;;;;;4908897;29;20611;-64
2023/11/10 00:44:59;;;;;;;4.60;2.50;;;8.50;99.90;;;;;;4912414;28;20523;-64
2023/11/10 00:47:27;;;;;;;4.80;2.63;;;8.50;99.90;;;;;;4911928;29;20575;-64
2023/11/10 00:49:55;;;;;;;3.47;2.77;;;8.50;99.90;;;;;;4916310;29;20875;-64
2023/11/10 00:52:23;;;;;;;3.00;2.70;;;8.50;99.90;;;;;;4918011;29;20582;-64
2023/11/10 00:54:51;;;;;;;2.93;2.63;;;8.50;99.90;;;;;;4915173;28;20571;-64
2023/11/10 00:57:19;;;;;;;5.90;2.30;;;8.40;99.90;;;;;;4916440;29;20499;-64
2023/11/10 00:59:49;;;;;;;7.00;2.30;;;8.50;99.90;;;;;;4912456;29;21026;-64
2023/11/10 01:02:17;;;;;;;2.67;2.47;;;8.50;99.90;;;;;;4913829;29;20480;-64
2023/11/10 01:04:45;;;;;;;3.93;2.30;;;8.40;99.90;;;;;;4908970;28;20501;-64
2023/11/10 01:07:13;;;;;;;2.87;1.70;;;8.40;99.90;;;;;;4910216;29;20503;-64
2023/11/10 01:09:41;;;;;;;3.20;1.50;;;8.40;99.90;;;;;;4914603;29;20479;-63
2023/11/10 01:12:10;;;;;;;1.80;1.70;;;8.40;99.90;;;;;;4915687;29;22084;-64
2023/11/10 01:14:38;;;;;;;1.93;1.60;;;8.40;99.90;;;;;;4913554;28;20547;-64
2023/11/10 01:17:07;;;;;;;3.10;1.40;;;8.40;99.90;;;;;;4915939;29;20566;-65
2023/11/10 01:19:37;;;;;;;2.13;1.70;;;8.30;99.90;;;;;;4916187;29;20472;-64
2023/11/10 01:22:05;;;;;;;1.43;1.27;;;8.30;99.90;;;;;;4912206;29;20475;-64
2023/11/10 01:24:34;;;;;;;1.10;1.00;;;8.30;99.90;;;;;;4912894;28;20606;-64
2023/11/10 01:27:02;;;;;;;1.97;1.00;;;8.30;99.90;;;;;;4914694;29;23965;-63
2023/11/10 01:29:30;;;;;;;1.43;0.80;;;8.20;99.90;;;;;;4916510;29;21034;-62
2023/11/10 01:31:59;;;;;;;1.03;1.03;;;8.20;99.90;;;;;;4913481;29;20902;-64
2023/11/10 01:34:28;;;;;;;1.30;1.00;;;8.10;99.90;;;;;;4914733;28;20505;-62
2023/11/10 01:36:56;;;;;;;0.90;0.80;;;8.10;99.90;;;;;;4917888;29;20471;-64
2023/11/10 01:39:25;;;;;;;1.13;1.00;;;8.10;99.90;;;;;;4917008;29;20571;-64
2023/11/10 01:41:53;;;;;;;1.13;0.90;;;8.10;99.90;;;;;;4917672;29;20489;-64
2023/11/10 01:44:21;;;;;;;1.07;0.80;;;8.00;99.90;;;;;;4918034;28;20596;-64
2023/11/10 01:46:50;;;;;;;2.47;1.10;;;8.00;99.90;;;;;;4920944;29;20512;-64
2023/11/10 01:49:21;;;;;;;1.30;1.00;;;8.00;99.90;;;;;;4915619;29;20479;-64
2023/11/10 01:51:52;;;;;;;2.30;1.10;;;8.00;99.90;;;;;;4908543;29;20483;-63
2023/11/10 01:54:22;;;;;;;1.60;1.33;;;7.90;99.90;;;;;;4919261;28;20669;-64
2023/11/10 01:56:52;;;;;;;1.57;1.20;;;7.90;99.90;;;;;;4919482;29;20471;-64
2023/11/10 01:59:20;;;;;;;1.07;1.03;;;7.90;99.90;;;;;;4916613;29;20566;-64
2023/11/10 02:01:48;;;;;;;1.80;1.43;;;7.90;99.90;;;;;;4916069;29;20554;-64
2023/11/10 02:04:17;;;;;;;1.17;1.07;;;7.90;99.90;;;;;;4908335;28;20691;-64
2023/11/10 02:06:46;;;;;;;1.30;1.20;;;7.90;99.90;;;;;;4916511;29;20464;-63
2023/11/10 02:09:16;;;;;;;1.50;1.10;;;7.90;99.90;;;;;;4918455;29;20472;-64
2023/11/10 02:11:44;;;;;;;1.40;1.30;;;7.90;99.90;;;;;;4917601;29;20483;-63
2023/11/10 02:14:13;;;;;;;2.80;1.60;;;7.90;99.90;;;;;;4917832;28;20588;-64
2023/11/10 02:16:42;;;;;;;1.47;1.37;;;7.90;99.90;;;;;;4920618;29;20490;-64
2023/11/10 02:19:15;;;;;;;2.07;1.60;;;7.90;99.90;;;;;;4920393;29;20484;-64
2023/11/10 02:21:44;;;;;;;1.90;1.70;;;7.90;99.90;;;;;;4909549;29;20894;-63
2023/11/10 02:24:14;;;;;;;2.07;1.87;;;7.90;99.90;;;;;;4916069;28;20509;-64
2023/11/10 02:26:44;;;;;;;2.33;2.13;;;7.90;99.90;;;;;;4916450;29;20484;-64
2023/11/10 02:29:13;;;;;;;3.53;2.23;;;7.90;99.90;;;;;;4908043;29;20583;-64
2023/11/10 02:31:41;;;;;;;2.83;2.60;;;7.90;99.90;;;;;;4915066;29;20479;-64
2023/11/10 02:34:09;;;;;;;2.80;2.57;;;8.00;99.90;;;;;;4914213;28;20823;-63
2023/11/10 02:36:37;;;;;;;3.30;2.90;;;8.00;99.90;;;;;;4913869;29;20572;-64
2023/11/10 02:39:05;;;;;;;2.90;2.70;;;8.00;99.90;;;;;;4916925;29;20582;-63
2023/11/10 02:41:36;;;;;;;3.07;2.83;;;8.00;99.90;;;;;;4917546;29;20603;-64
2023/11/10 02:44:06;;;;;;;3.20;2.90;;;8.00;99.90;;;;;;4917017;28;20499;-64
2023/11/10 02:46:34;;;;;;;3.10;2.90;;;8.00;99.90;;;;;;4915829;29;20570;-64
2023/11/10 02:49:03;;;;;;;3.80;2.97;;;8.00;99.90;;;;;;4917473;29;20479;-64
2023/11/10 02:51:31;;;;;;;3.70;3.40;;;8.00;99.90;;;;;;4916411;29;20567;-64
2023/11/10 02:53:59;;;;;;;3.80;3.50;;;8.00;99.90;;;;;;4915617;28;20548;-64
2023/11/10 02:56:27;;;;;;;4.60;3.77;;;8.00;99.90;;;;;;4918980;29;20492;-63
2023/11/10 02:58:55;;;;;;;3.30;3.10;;;8.00;99.90;;;;;;4914803;29;20556;-64
2023/11/10 03:01:26;;;;;;;3.83;3.47;;;8.00;99.90;;;;;;4913962;29;21049;-63
2023/11/10 03:03:54;;;;;;;4.47;3.77;;;8.00;99.90;;;;;;4913478;28;20492;-64
2023/11/10 03:06:22;;;;;;;3.90;3.53;;;8.00;99.90;;;;;;4914714;29;20535;-64
2023/11/10 03:08:51;;;;;;;5.30;3.67;;;8.00;99.90;;;;;;4912942;29;20483;-64
2023/11/10 03:11:20;;;;;;;4.07;3.63;;;8.00;99.90;;;;;;4915422;29;20483;-64
2023/11/10 03:13:48;;;;;;;4.07;3.60;;;8.00;99.90;;;;;;4915598;28;20522;-64
2023/11/10 03:16:16;;;;;;;4.70;4.10;;;8.00;99.90;;;;;;4915107;29;20491;-64
2023/11/10 03:18:44;;;;;;;3.97;3.67;;;8.00;99.90;;;;;;4917385;29;20488;-64
2023/11/10 03:21:17;;;;;;;3.80;3.50;;;8.00;99.90;;;;;;4917887;29;20479;-64
2023/11/10 03:23:46;;;;;;;4.20;3.90;;;8.00;99.90;;;;;;4911923;28;20516;-64
2023/11/10 03:26:14;;;;;;;5.53;4.63;;;8.00;99.90;;;;;;4913113;29;20556;-63
2023/11/10 03:28:43;;;;;;;4.97;4.50;;;8.00;99.90;;;;;;4914598;29;20556;-64
2023/11/10 03:31:11;;;;;;;5.20;4.70;;;8.00;99.90;;;;;;4909439;29;20516;-64
2023/11/10 03:33:39;;;;;;;4.40;3.90;;;8.00;99.90;;;;;;4917008;28;20500;-64
2023/11/10 03:36:10;;;;;;;4.73;4.30;;;8.00;99.90;;;;;;4915117;29;22192;-63
2023/11/10 03:38:38;;;;;;;5.00;4.50;;;8.00;99.90;;;;;;4908075;29;20961;-64
2023/11/10 03:41:07;;;;;;;4.90;4.50;;;8.00;99.90;;;;;;4916200;29;20871;-64
2023/11/10 03:43:35;;;;;;;4.37;3.97;;;8.00;99.90;;;;;;4911671;28;20600;-65
2023/11/10 03:46:03;;;;;;;5.27;4.80;;;8.00;99.90;;;;;;4915415;29;20512;-64
2023/11/10 03:48:31;;;;;;;4.40;4.00;;;8.10;99.90;;;;;;4915066;29;20535;-64
2023/11/10 03:51:00;;;;;;;6.07;5.10;;;8.00;99.90;;;;;;4913265;29;20567;-64
2023/11/10 03:53:29;;;;;;;5.33;4.83;;;8.10;99.90;;;;;;4917024;28;20694;-63
2023/11/10 03:55:57;;;;;;;5.83;4.57;;;8.10;99.90;;;;;;4918698;29;21003;-64
2023/11/10 03:58:25;;;;;;;5.83;5.10;;;8.10;99.90;;;;;;4913482;29;20499;-64
2023/11/10 04:00:53;;;;;;;5.57;5.07;;;8.10;99.90;;;;;;4918100;29;20571;-63
2023/11/10 04:03:21;;;;;;;6.10;5.60;;;8.10;99.90;;;;;;4911084;28;20502;-63
2023/11/10 04:05:49;;;;;;;5.83;5.27;;;8.00;99.90;;;;;;4909032;29;20595;-63
2023/11/10 04:08:17;;;;;;;7.73;5.90;;;8.10;99.90;;;;;;4910258;29;21820;-64
2023/11/10 04:10:47;;;;;;;5.77;5.20;;;8.10;99.90;;;;;;4909791;29;20480;-62
2023/11/10 04:13:15;;;;;;;6.07;5.47;;;8.10;99.90;;;;;;4911610;28;20494;-64
2023/11/10 04:15:43;;;;;;;7.47;5.80;;;8.10;99.90;;;;;;4915915;29;20655;-63
2023/11/10 04:18:17;;;;;;;6.33;5.73;;;8.10;99.90;;;;;;4912072;29;20602;-64
2023/11/10 04:20:45;;;;;;;6.93;6.33;;;8.10;99.90;;;;;;4917299;29;20480;-64
2023/11/10 04:23:15;;;;;;;6.10;5.50;;;8.10;99.90;;;;;;4917201;28;20491;-63
2023/11/10 04:25:43;;;;;;;6.97;5.73;;;8.10;99.90;;;;;;4914824;29;20479;-63
2023/11/10 04:28:13;;;;;;;6.33;5.73;;;8.10;99.90;;;;;;4917870;29;20580;-64
2023/11/10 04:30:41;;;;;;;6.13;5.53;;;8.10;99.90;;;;;;4916310;29;20471;-64
2023/11/10 04:33:09;;;;;;;6.00;5.40;;;8.10;99.90;;;;;;4916986;28;20562;-63
2023/11/10 04:35:37;;;;;;;6.27;5.67;;;8.10;99.90;;;;;;4913862;29;20511;-64
2023/11/10 04:38:08;;;;;;;5.83;5.30;;;8.10;99.90;;;;;;4908351;29;20572;-63
2023/11/10 04:40:36;;;;;;;6.93;6.30;;;8.10;99.90;;;;;;4910632;29;20486;-64
2023/11/10 04:43:05;;;;;;;6.60;6.00;;;8.10;99.90;;;;;;4906402;28;20495;-64
2023/11/10 04:45:35;;;;;;;6.33;5.73;;;8.10;99.90;;;;;;4912634;29;20468;-64
2023/11/10 04:48:03;;;;;;;7.00;6.40;;;8.10;99.90;;;;;;4912001;29;20936;-62
2023/11/10 04:50:32;;;;;;;6.07;5.47;;;8.10;99.90;;;;;;4916520;29;20476;-63
2023/11/10 04:53:00;;;;;;;5.80;5.27;;;8.10;99.90;;;;;;4916190;28;20475;-63
2023/11/10 04:55:28;;;;;;;6.13;5.63;;;8.10;99.90;;;;;;4914308;29;20623;-63
2023/11/10 04:57:56;;;;;;;6.97;5.93;;;8.00;99.90;;;;;;4913321;29;20548;-63
2023/11/10 05:00:24;;;;;;;6.90;6.20;;;8.00;99.90;;;;;;4914787;29;20572;-63
2023/11/10 05:02:55;;;;;;;7.10;6.23;;;8.00;99.90;;;;;;4905223;28;20562;-63
2023/11/10 05:05:25;;;;;;;6.77;5.97;;;8.00;99.90;;;;;;4908899;29;20540;-63
2023/11/10 05:07:53;;;;;;;8.00;5.83;;;8.00;99.90;;;;;;4907402;29;20503;-62
2023/11/10 05:10:21;;;;;;;6.73;6.13;;;8.00;99.90;;;;;;4908942;29;20472;-63
2023/11/10 05:12:49;;;;;;;5.97;5.47;;;7.90;99.90;;;;;;4904475;28;20517;-63
2023/11/10 05:15:17;;;;;;;6.30;5.70;;;8.00;99.90;;;;;;4904976;29;20581;-63
2023/11/10 05:17:45;;;;;;;6.17;5.57;;;8.00;99.90;;;;;;4907671;29;20829;-63
2023/11/10 05:20:16;;;;;;;6.40;5.43;;;7.90;99.90;;;;;;4909060;29;20483;-63
2023/11/10 05:22:44;;;;;;;5.87;5.37;;;7.90;99.90;;;;;;4906123;29;20472;-63
2023/11/10 05:25:12;;;;;;;5.90;5.40;;;8.00;99.90;;;;;;4908552;28;20986;-63
2023/11/10 05:27:41;;;;;;;5.80;5.30;;;8.00;99.90;;;;;;4910171;29;20632;-64
2023/11/10 05:30:12;;;;;;;5.80;5.20;;;8.00;99.90;;;;;;4914846;29;20532;-62
2023/11/10 05:32:41;;;;;;;5.67;5.17;;;7.90;99.90;;;;;;4909046;29;20468;-63
2023/11/10 05:35:09;;;;;;;5.23;4.67;;;8.00;99.90;;;;;;4913870;28;20488;-63
2023/11/10 05:37:38;;;;;;;5.27;4.87;;;8.00;99.90;;;;;;4913893;29;20499;-64
2023/11/10 05:40:09;;;;;;;5.93;5.40;;;8.00;99.90;;;;;;4915363;29;20552;-62
2023/11/10 05:42:38;;;;;;;5.60;4.80;;;8.00;99.90;;;;;;4906199;29;20496;-64
2023/11/10 05:45:09;;;;;;;5.53;4.97;;;8.00;99.90;;;;;;4909464;28;20833;-63
2023/11/10 05:47:37;;;;;;;5.60;5.10;;;8.00;99.90;;;;;;4913798;29;20562;-64
2023/11/10 05:50:06;;;;;;;6.10;5.13;;;8.10;99.90;;;;;;4914247;29;20559;-63
2023/11/10 05:52:34;;;;;;;5.33;4.93;;;8.00;99.90;;;;;;4910440;29;20505;-63
2023/11/10 05:55:04;;;;;;;5.60;5.10;;;8.00;99.90;;;;;;4908748;28;20495;-63
2023/11/10 05:57:32;;;;;;;5.50;4.93;;;8.00;99.90;;;;;;4915716;29;20468;-63
2023/11/10 06:00:00;;;;;;;6.77;5.10;;;8.00;99.90;;;;;;4915238;29;20488;-63
2023/11/10 06:02:28;;;;;;;6.30;5.20;;;8.00;99.90;;;;;;4914373;29;20503;-63
2023/11/10 06:04:56;;;;;;;5.33;4.83;;;8.00;99.90;;;;;;4914846;28;20917;-63
2023/11/10 06:07:25;;;;;;;5.87;5.37;;;8.00;99.90;;;;;;4906904;29;20475;-63
2023/11/10 06:09:53;;;;;;;6.20;5.10;;;8.00;99.90;;;;;;4910874;29;20602;-63
2023/11/10 06:12:23;;;;;;;6.40;5.10;;;8.00;99.90;;;;;;4907711;29;20483;-63
2023/11/10 06:14:51;;;;;;;5.47;4.97;;;8.00;99.90;;;;;;4911710;28;20662;-63
2023/11/10 06:17:19;;;;;;;6.27;5.10;;;8.00;99.90;;;;;;4903538;29;20539;-62
2023/11/10 06:19:47;;;;;;;4.70;4.30;;;8.00;99.90;;;;;;4906931;29;20804;-63
2023/11/10 06:22:16;;;;;;;5.20;4.80;;;8.00;99.90;;;;;;4901225;29;20472;-63
2023/11/10 06:24:44;;;;;;;6.00;4.80;;;8.00;99.90;;;;;;4898834;28;20515;-62
2023/11/10 06:27:13;;;;;;;4.57;4.17;;;8.10;99.90;;;;;;4906567;29;20693;-63
2023/11/10 06:29:43;;;;;;;4.80;4.40;;;8.00;99.90;;;;;;4908285;29;20530;-62
2023/11/10 06:32:12;;;;;;;6.80;3.83;;;8.00;99.90;;;;;;4890385;29;20482;-63
2023/11/10 06:34:41;;;;;;;4.20;3.87;;;8.10;99.90;;;;;;4885477;28;21369;-63
2023/11/10 06:37:11;;;;;;;4.40;4.00;;;8.10;99.90;;;;;;4899260;29;21187;-63
2023/11/10 06:39:40;;;;;;;4.73;4.33;;;8.10;99.90;;;;;;4913516;29;20551;-62
2023/11/10 06:42:09;;;;;;;4.67;3.87;;;8.10;99.90;;;;;;4913026;29;20492;-62
2023/11/10 06:44:38;;;;;;;4.57;4.17;;;8.10;99.90;;;;;;4912049;28;20542;-62
2023/11/10 06:47:08;;;;;;;5.07;4.00;;;8.00;99.90;;;;;;4907962;29;20584;-62
2023/11/10 06:49:36;;;;;;;4.60;3.97;;;8.00;99.90;;;;;;4908374;29;20592;-62
2023/11/10 06:52:05;;;;;;;5.10;3.70;;;8.00;99.90;;;;;;4901359;29;20512;-64
2023/11/10 06:54:33;;;;;;;7.33;4.10;;;8.00;99.90;;;;;;4916452;28;20642;-62
2023/11/10 06:57:01;;;;;;;4.20;3.80;;;8.00;99.90;;;;;;4914683;29;21049;-63
2023/11/10 06:59:29;;;;;;;3.57;3.27;;;8.00;99.90;;;;;;4915232;29;20570;-63
2023/11/10 07:01:57;;;;;;;5.20;3.67;;;8.00;99.90;;;;;;4905752;29;20619;-62
2023/11/10 07:04:26;;;;;;;4.60;3.70;;;8.00;99.90;;;;;;4917479;28;20484;-63
2023/11/10 07:06:54;;;;;;;3.43;3.13;;;8.00;99.90;;;;;;4910192;29;20521;-63
2023/11/10 07:09:25;;;;;;;4.00;3.10;;;8.00;99.90;;;;;;4906850;29;20480;-63
2023/11/10 07:11:53;;;;;;;4.50;3.40;;;7.90;99.90;;;;;;4911055;29;20587;-62
2023/11/10 07:14:21;;;;;;;4.80;3.63;;;8.00;99.90;;;;;;4914835;28;20598;-63
2023/11/10 07:16:50;;;;;;;5.17;3.33;;;8.00;99.90;;;;;;4918229;29;20498;-63
2023/11/10 07:19:18;;;;;;;5.80;3.30;;;8.00;99.90;;;;;;4910618;29;20472;-63
2023/11/10 07:21:48;;;;;;;4.17;3.50;;;8.00;99.90;;;;;;4914547;29;20895;-64
2023/11/10 07:24:16;;;;;;;4.43;3.37;;;8.10;99.90;;;;;;4905644;28;20903;-63
2023/11/10 07:26:44;;;;;;;3.93;2.60;;;8.10;99.90;;;;;;4912814;29;20475;-64
2023/11/10 07:29:12;;;;;;;5.53;2.73;;;8.10;99.90;;;;;;4914393;29;20838;-63
2023/11/10 07:31:40;;;;;;;3.00;2.70;;;8.10;99.90;;;;;;4908471;29;20472;-64
2023/11/10 07:34:10;;;;;;;3.43;2.50;;;8.10;99.90;;;;;;4913731;28;20504;-64
2023/11/10 07:36:38;;;;;;;3.43;2.63;;;8.10;99.90;;;;;;4912157;29;20507;-62
2023/11/10 07:39:08;;;;;;;3.17;2.60;;;8.10;99.90;;;;;;4913018;29;20480;-63
2023/11/10 07:41:36;;;;;;;2.53;2.23;;;8.10;99.90;;;;;;4912909;29;20507;-63
2023/11/10 07:44:04;;;;;;;2.80;2.37;;;8.10;99.90;;;;;;4915663;28;20982;-63
2023/11/10 07:46:33;;;;;;;2.50;2.30;;;8.10;99.90;;;;;;4908171;29;20483;-63
2023/11/10 07:49:01;;;;;;;6.67;2.60;;;8.20;99.90;;;;;;4914294;29;20477;-63
2023/11/10 07:51:29;;;;;;;4.70;2.20;;;8.10;99.90;;;;;;4909530;29;20568;-64
2023/11/10 07:53:57;;;;;;;4.90;2.47;;;8.10;99.90;;;;;;4907289;28;20503;-62
2023/11/10 07:56:26;;;;;;;2.80;2.00;;;8.10;99.90;;;;;;4913347;29;21030;-63
2023/11/10 07:58:54;;;;;;;3.20;1.90;;;8.10;99.90;;;;;;4917454;29;20531;-63
2023/11/10 08:01:23;;;;;;;2.90;2.20;;;8.10;99.90;;;;;;4910828;29;21003;-63
2023/11/10 08:03:51;;;;;;;4.53;1.90;;;8.20;99.90;;;;;;4912031;28;20498;-63
2023/11/10 08:06:19;;;;;;;7.40;2.30;;;8.20;99.90;;;;;;4910720;29;20476;-63
2023/11/10 08:08:47;;;;;;;2.63;2.10;;;8.20;99.90;;;;;;4910185;29;20792;-62
2023/11/10 08:11:16;;;;;;;3.10;2.27;;;8.20;99.90;;;;;;4908217;29;21111;-64
2023/11/10 08:13:46;;;;;;;4.17;2.03;;;8.20;99.90;;;;;;4909996;28;20509;-63
2023/11/10 08:16:15;;;;;;;2.20;2.00;;;8.20;99.90;;;;;;4909279;29;20500;-63
2023/11/10 08:18:43;;;;;;;2.60;2.07;;;8.20;99.90;;;;;;4909270;29;20570;-63
2023/11/10 08:21:17;;;;;;;3.10;1.60;;;8.20;99.90;;;;;;4908950;29;21045;-63
2023/11/10 08:23:45;;;;;;;3.23;1.80;;;8.20;99.90;;;;;;4910133;28;20513;-63
2023/11/10 08:26:13;;;;;;;1.90;1.70;;;8.30;99.90;;;;;;4913836;29;20484;-63
2023/11/10 08:28:41;;;;;;;2.00;1.77;;;8.30;99.90;;;;;;4901574;29;20571;-62
2023/11/10 08:31:11;;;;;;;2.00;1.73;;;8.30;99.90;;;;;;4901727;29;20504;-63
2023/11/10 08:33:39;;;;;;;5.13;2.10;;;8.30;99.90;;;;;;4912170;28;20504;-64
2023/11/10 08:36:09;;;;;;;3.10;1.90;;;8.30;99.90;;;;;;4911568;29;20484;-63
2023/11/10 08:38:37;;;;;;;2.10;2.00;;;8.30;99.90;;;;;;4895944;29;20958;-63
2023/11/10 08:41:05;;;;;;;2.63;2.00;;;8.30;99.90;;;;;;4905518;29;20590;-63
2023/11/10 08:43:33;;;;;;;3.87;2.50;;;8.30;99.90;;;;;;4908985;28;20496;-64
2023/11/10 08:46:01;;;;;;;2.03;1.67;;;8.40;99.90;;;;;;4908623;29;20477;-62
2023/11/10 08:48:31;;;;;;;3.40;1.90;;;8.30;99.90;;;;;;4904515;29;20527;-64
2023/11/10 08:50:59;;;;;;;3.57;2.50;;;8.40;99.90;;;;;;4903863;29;20485;-62
2023/11/10 08:53:27;;;;;;;2.30;2.10;;;8.40;99.90;;;;;;4909109;28;20525;-64
2023/11/10 08:55:57;;;;;;;3.83;2.00;;;8.30;99.90;;;;;;4911506;29;20558;-63
2023/11/10 08:58:25;;;;;;;3.43;2.20;;;8.40;99.90;;;;;;4901287;29;20983;-63
2023/11/10 09:00:53;;;;;;;3.73;2.40;;;8.40;99.90;;;;;;4914097;29;20551;-64
2023/11/10 09:03:21;;;;;;;2.80;2.60;;;8.50;99.90;;;;;;4913071;28;20509;-63
2023/11/10 09:05:51;;;;;;;2.50;2.00;;;8.50;99.90;;;;;;4913235;29;20572;-63
2023/11/10 09:08:19;;;;;;;2.30;2.10;;;8.50;99.90;;;;;;4910446;29;20487;-64
2023/11/10 09:10:47;;;;;;;2.40;2.20;;;8.50;99.90;;;;;;4909887;29;20486;-63
2023/11/10 09:13:15;;;;;;;3.57;2.30;;;8.50;99.90;;;;;;4908718;28;20496;-63
2023/11/10 09:15:43;;;;;;;2.77;2.30;;;8.50;99.90;;;;;;4917073;29;20567;-64
2023/11/10 09:18:20;;;;;;;3.03;2.47;;;8.50;99.90;;;;;;4915478;29;20570;-62
2023/11/10 09:20:49;;;;;;;3.30;2.40;;;8.50;99.90;;;;;;4916385;29;20479;-62
2023/11/10 09:23:17;;;;;;;2.63;2.17;;;8.50;99.90;;;;;;4910537;28;20583;-63
2023/11/10 09:25:45;;;;;;;4.53;2.47;;;8.50;99.90;;;;;;4911050;29;20475;-63
2023/11/10 09:28:14;;;;;;;5.00;2.70;;;8.50;99.90;;;;;;4900528;29;21058;-63
2023/11/10 09:30:42;;;;;;;5.33;2.97;;;8.50;99.90;;;;;;4913541;29;20528;-64
2023/11/10 09:33:10;;;;;;;2.90;2.60;;;8.50;99.90;;;;;;4907725;28;20548;-63
2023/11/10 09:35:38;;;;;;;3.80;2.47;;;8.50;99.90;;;;;;4896785;29;20463;-62
2023/11/10 09:38:09;;;;;;;3.00;2.70;;;8.60;99.90;;;;;;4896835;29;20514;-63
2023/11/10 09:40:37;;;;;;;4.40;3.10;;;8.60;99.90;;;;;;4912040;29;20656;-63
2023/11/10 09:43:06;;;;;;;3.40;2.70;;;8.60;99.90;;;;;;4906312;28;20472;-63
2023/11/10 09:45:35;;;;;;;2.70;2.50;;;8.60;99.90;;;;;;4911045;29;20481;-62
2023/11/10 09:48:08;;;;;;;3.70;2.93;;;8.60;99.90;;;;;;4913478;29;20955;-63
2023/11/10 09:50:37;;;;;;;4.13;2.70;;;8.60;99.90;;;;;;4910190;29;20484;-63
2023/11/10 09:53:07;;;;;;;3.17;2.87;;;8.70;99.90;;;;;;4907819;28;20756;-63
2023/11/10 09:55:36;;;;;;;3.90;2.60;;;8.70;99.90;;;;;;4905459;29;20591;-63
2023/11/10 09:58:07;;;;;;;3.23;2.90;;;8.70;99.90;;;;;;4910503;29;20586;-64
2023/11/10 10:00:37;;;;;;;4.17;3.30;;;8.70;99.90;;;;;;4919675;29;20479;-63
2023/11/10 10:03:05;;;;;;;3.37;2.70;;;8.80;99.90;;;;;;4919907;28;20510;-63
2023/11/10 10:05:34;;;;;;;2.63;2.33;;;8.70;99.90;;;;;;4912629;29;20923;-63
2023/11/10 10:08:02;;;;;;;3.23;2.93;;;8.80;99.90;;;;;;4921917;29;20503;-63
2023/11/10 10:10:34;;;;;;;3.80;2.70;;;8.70;99.90;;;;;;4915829;29;20505;-63
2023/11/10 10:13:02;;;;;;;5.00;3.67;;;8.70;99.90;;;;;;4913903;28;20572;-63
2023/11/10 10:15:31;;;;;;;4.17;2.60;;;8.70;99.90;;;;;;4917188;29;20806;-63
2023/11/10 10:18:07;;;;;;;3.27;2.90;;;8.70;99.90;;;;;;4920241;29;20531;-63
2023/11/10 10:20:35;;;;;;;3.87;3.10;;;8.80;99.90;;;;;;4916139;29;20801;-63
2023/11/10 10:23:07;;;;;;;3.83;3.10;;;8.80;99.90;;;;;;4911579;28;23476;-63
2023/11/10 10:25:38;;;;;;;5.63;2.80;;;8.80;99.90;;;;;;4915990;29;20554;-61
2023/11/10 10:28:07;;;;;;;3.33;3.03;;;8.80;99.90;;;;;;4918098;29;20562;-62
2023/11/10 10:30:36;;;;;;;3.40;2.97;;;8.80;99.90;;;;;;4919988;29;20600;-63
2023/11/10 10:33:06;;;;;;;3.70;3.33;;;8.80;99.90;;;;;;4915754;28;20500;-63
2023/11/10 10:35:35;;;;;;;4.03;3.20;;;8.80;99.90;;;;;;4911045;29;20567;-63
2023/11/10 10:38:05;;;;;;;3.60;3.30;;;8.70;99.90;;;;;;4917097;29;21122;-62
2023/11/10 10:40:35;;;;;;;3.60;3.30;;;8.70;99.90;;;;;;4920956;29;20488;-63
2023/11/10 10:43:07;;;;;;;3.20;2.93;;;8.70;99.90;;;;;;4912992;28;20591;-63
2023/11/10 10:45:37;;;;;;;4.50;3.17;;;8.70;99.90;;;;;;4917435;29;20555;-63
2023/11/10 10:48:06;;;;;;;3.50;2.80;;;8.70;99.90;;;;;;4917033;29;20538;-63
2023/11/10 10:50:34;;;;;;;3.87;3.47;;;8.70;99.90;;;;;;4922710;29;20475;-64
2023/11/10 10:53:06;;;;;;;3.60;3.30;;;8.70;99.90;;;;;;4916832;28;20487;-65
2023/11/10 10:55:38;;;;;;;3.70;3.40;;;8.70;99.90;;;;;;4918473;29;20591;-62
2023/11/10 10:58:08;;;;;;;4.80;3.47;;;8.80;99.90;;;;;;4918217;29;20591;-63
2023/11/10 11:00:37;;;;;;;4.97;3.70;;;8.80;99.90;;;;;;4896851;29;20492;-63
2023/11/10 11:03:20;;;;;;;3.77;3.47;;;8.80;99.90;;;;;;4914143;28;20578;-63
2023/11/10 11:06:05;;;;;;;4.50;4.10;;;8.80;99.90;;;;;;4914014;29;20488;-62
2023/11/10 11:08:54;;;;;;;4.27;3.90;;;8.90;99.90;;;;;;4902753;29;20486;-62
2023/11/10 11:11:38;;;;;;;4.13;3.83;;;8.90;99.90;;;;;;4913284;29;20486;-63
2023/11/10 11:14:28;;;;;;;3.70;3.40;;;8.90;99.90;;;;;;4907981;28;20519;-64
2023/11/10 11:17:17;;;;;;;6.70;3.90;;;9.00;99.90;;;;;;4909878;29;21233;-63
2023/11/10 11:19:45;;;;;;;3.87;3.57;;;9.00;99.90;;;;;;4901652;29;20503;-64
2023/11/10 11:22:14;;;;;;;5.30;3.53;;;9.00;99.90;;;;;;4914834;29;20477;-61
2023/11/10 11:24:44;;;;;;;3.80;3.50;;;9.00;99.90;;;;;;4903979;28;20895;-64
2023/11/10 11:27:21;;;;;;;4.83;3.53;;;9.00;99.90;;;;;;4906814;29;20555;-63
2023/11/10 11:29:56;;;;;;;4.67;3.60;;;9.00;99.90;;;;;;4905979;29;21694;-64
2023/11/10 11:32:30;;;;;;;4.13;3.73;;;9.10;99.90;;;;;;4909134;29;20831;-63
2023/11/10 11:34:58;;;;;;;3.40;2.77;;;9.10;99.90;;;;;;4912117;28;21105;-64
2023/11/10 11:37:31;;;;;;;3.50;3.20;;;9.10;99.90;;;;;;4905000;29;20974;-63
2023/11/10 11:40:01;;;;;;;3.13;2.83;;;9.10;99.90;;;;;;4914884;29;20496;-64
2023/11/10 11:42:36;;;;;;;3.77;3.47;;;9.20;99.90;;;;;;4914288;29;20503;-63
2023/11/10 11:45:11;;;;;;;4.10;3.13;;;9.20;99.90;;;;;;4915674;28;20537;-63
2023/11/10 11:47:39;;;;;;;4.10;2.67;;;9.20;99.90;;;;;;4913651;29;20575;-64
2023/11/10 11:50:09;;;;;;;3.30;3.00;;;9.20;99.90;;;;;;4900315;29;20570;-63
2023/11/10 11:52:37;;;;;;;3.13;2.67;;;9.20;99.90;;;;;;4914682;29;20472;-64
2023/11/10 11:55:06;;;;;;;7.23;2.80;;;9.20;99.90;;;;;;4912332;28;20528;-62
2023/11/10 11:57:36;;;;;;;3.60;3.20;;;9.20;99.90;;;;;;4914123;29;20582;-63
2023/11/10 12:00:08;;;;;;;4.70;2.77;;;9.20;99.90;;;;;;4906076;29;20499;-64
2023/11/10 12:02:39;;;;;;;4.27;3.10;;;9.20;99.90;;;;;;4909845;29;20945;-64
2023/11/10 12:05:12;;;;;;;3.13;2.80;;;9.20;99.90;;;;;;4910484;28;20568;-63
2023/11/10 12:07:42;;;;;;;3.40;3.10;;;9.20;99.90;;;;;;4916737;29;21156;-63
2023/11/10 12:10:11;;;;;;;4.90;3.90;;;9.30;99.90;;;;;;4915895;29;20480;-63
2023/11/10 12:12:40;;;;;;;4.77;3.33;;;9.30;99.90;;;;;;4907474;29;20504;-63
2023/11/10 12:15:10;;;;;;;5.43;3.50;;;9.30;99.90;;;;;;4907006;28;20492;-63
2023/11/10 12:17:38;;;;;;;4.03;3.63;;;9.30;99.90;;;;;;4910332;29;20947;-63
2023/11/10 12:20:09;;;;;;;3.80;3.50;;;9.30;99.90;;;;;;4901545;29;20503;-63
2023/11/10 12:22:38;;;;;;;3.87;3.57;;;9.30;99.90;;;;;;4911528;29;20507;-63
2023/11/10 12:25:10;;;;;;;4.13;3.83;;;9.30;99.90;;;;;;4913042;28;20509;-63
2023/11/10 12:27:38;;;;;;;3.73;3.43;;;9.30;99.90;;;;;;4911666;29;20508;-63
2023/11/10 12:30:08;;;;;;;3.60;3.30;;;9.30;99.90;;;;;;4909679;29;20489;-63
2023/11/10 12:32:41;;;;;;;4.57;4.17;;;9.30;99.90;;;;;;4911065;29;20559;-64
2023/11/10 12:35:12;;;;;;;4.30;3.90;;;9.30;99.90;;;;;;4916020;28;20536;-63
2023/11/10 12:37:40;;;;;;;5.47;3.90;;;9.30;99.90;;;;;;4914518;29;20607;-63
2023/11/10 12:40:13;;;;;;;5.13;3.43;;;9.30;99.90;;;;;;4917846;29;20503;-62
2023/11/10 12:42:42;;;;;;;4.93;4.20;;;9.30;99.90;;;;;;4918304;29;20498;-63
2023/11/10 12:45:11;;;;;;;6.83;4.03;;;9.30;99.90;;;;;;4916153;28;20543;-63
2023/11/10 12:47:44;;;;;;;4.10;3.70;;;9.40;99.90;;;;;;4916245;29;20595;-63
2023/11/10 12:50:30;;;;;;;4.93;4.30;;;9.40;99.90;;;;;;4915211;29;20476;-63
2023/11/10 12:52:58;;;;;;;7.23;3.90;;;9.40;99.90;;;;;;4918862;28;20498;-63
2023/11/10 12:55:27;;;;;;;4.67;4.00;;;9.40;99.90;;;;;;4918831;29;20493;-63
2023/11/10 12:57:56;;;;;;;4.37;3.97;;;9.40;99.90;;;;;;4917503;29;20995;-64
2023/11/10 13:00:25;;;;;;;4.57;3.97;;;9.40;99.90;;;;;;4914939;29;20554;-63
2023/11/10 13:02:55;;;;;;;4.33;3.93;;;9.40;99.90;;;;;;4909619;28;20547;-63
2023/11/10 13:05:24;;;;;;;4.13;3.83;;;9.40;99.90;;;;;;4913988;29;20467;-63
2023/11/10 13:07:52;;;;;;;4.60;3.83;;;9.30;99.90;;;;;;4911950;29;20825;-63